Time;durP1;ratioP1;P1;durP2;ratioP2;P2;SDS_P1;SDS_P2;PMS_P1;PMS_P2;Temp;Humidity;BMP_temperature;BMP_pressure;BME280_temperature;BME280_humidity;BME280_pressure;Samples;Min_cycle;Max_cycle;Signal;HPM_P1;HPM_P2
2022/09/12 00:00:25;;;;;;;13.05;9.55;;;;;;;14.12;100.00;99416.94;1681361;85;21560;-60
2022/09/12 00:02:56;;;;;;;16.30;11.28;;;;;;;14.13;100.00;99419.99;1701511;83;21067;-61
2022/09/12 00:05:25;;;;;;;16.55;11.22;;;;;;;14.13;100.00;99419.99;1699081;82;21007;-66
2022/09/12 00:07:56;;;;;;;21.35;11.38;;;;;;;14.11;100.00;99411.14;1688467;83;21068;-61
2022/09/12 00:10:28;;;;;;;13.35;10.68;;;;;;;14.10;100.00;99409.47;1706346;82;21015;-61
2022/09/12 00:12:58;;;;;;;16.55;11.00;;;;;;;14.10;100.00;99402.58;1716609;82;21118;-61
2022/09/12 00:15:28;;;;;;;14.98;10.45;;;;;;;14.11;100.00;99404.80;1700322;83;21129;-60
2022/09/12 00:17:58;;;;;;;17.07;10.40;;;;;;;14.09;100.00;99402.28;1705664;83;21094;-61
2022/09/12 00:20:29;;;;;;;15.60;11.33;;;;;;;14.10;100.00;99397.06;1707025;82;21043;-61
2022/09/12 00:22:59;;;;;;;15.35;11.63;;;;;;;14.12;100.00;99399.03;1693731;83;21471;-62
2022/09/12 00:25:29;;;;;;;14.90;10.80;;;;;;;14.13;100.00;99402.09;1700924;83;21039;-63
2022/09/12 00:28:00;;;;;;;16.50;11.22;;;;;;;14.16;100.00;99393.88;1684636;83;21063;-61
2022/09/12 00:30:30;;;;;;;17.73;11.20;;;;;;;14.17;100.00;99396.92;1707811;84;20992;-61
2022/09/12 00:32:59;;;;;;;14.18;10.78;;;;;;;14.18;100.00;99388.95;1685040;83;21511;-61
2022/09/12 00:35:28;;;;;;;15.40;11.08;;;;;;;14.20;100.00;99385.41;1682687;84;21651;-61
2022/09/12 00:37:57;;;;;;;14.83;11.38;;;;;;;14.20;100.00;99391.76;1717646;82;21479;-62
2022/09/12 00:40:27;;;;;;;13.32;10.60;;;;;;;14.22;100.00;99385.46;1710569;83;21063;-61
2022/09/12 00:42:57;;;;;;;16.97;11.12;;;;;;;14.24;100.00;99388.80;1719332;83;21047;-62
2022/09/12 00:45:28;;;;;;;20.82;11.18;;;;;;;14.26;100.00;99381.67;1702626;83;21115;-62
2022/09/12 00:48:01;;;;;;;12.37;10.00;;;;;;;14.24;100.00;99376.41;1728111;83;21060;-61
2022/09/12 00:50:31;;;;;;;13.53;10.53;;;;;;;14.24;100.00;99381.92;1727809;83;21476;-61
2022/09/12 00:53:03;;;;;;;17.20;10.88;;;;;;;14.25;100.00;99379.45;1718421;83;21043;-63
2022/09/12 00:55:40;;;;;;;14.78;10.72;;;;;;;14.25;100.00;99377.24;1710783;83;21436;-61
2022/09/12 00:58:21;;;;;;;14.43;10.05;;;;;;;14.26;100.00;99381.13;1705044;83;21101;-61
2022/09/12 01:00:51;;;;;;;15.00;10.70;;;;;;;14.28;100.00;99379.50;1708310;83;21307;-61
2022/09/12 01:03:22;;;;;;;14.45;10.32;;;;;;;14.27;100.00;99377.29;1698123;83;21093;-62
2022/09/12 01:06:22;;;;;;;13.55;10.38;;;;;;;14.28;100.00;99377.58;1717456;82;21443;-62
2022/09/12 01:08:52;;;;;;;15.45;10.93;;;;;;;14.28;100.00;99377.58;1708841;83;21035;-61
2022/09/12 01:11:22;;;;;;;14.53;10.30;;;;;;;14.28;100.00;99378.13;1674735;83;21047;-62
2022/09/12 01:13:54;;;;;;;14.78;10.60;;;;;;;14.28;100.00;99374.83;1708770;83;21035;-62
2022/09/12 01:16:24;;;;;;;11.35;9.28;;;;;;;14.27;100.00;99367.64;1715625;83;21001;-62
2022/09/12 01:19:37;;;;;;;13.68;9.60;;;;;;;14.28;100.00;99370.70;1720985;83;21027;-60
2022/09/12 01:22:38;;;;;;;11.70;9.43;;;;;;;14.27;100.00;99374.53;1719086;83;21075;-61
2022/09/12 01:25:32;;;;;;;14.00;10.58;;;;;;;14.27;100.00;99372.33;1719283;83;21083;-61
2022/09/12 01:28:50;;;;;;;12.55;9.98;;;;;;;14.29;100.00;99378.42;1727836;83;21062;-61
2022/09/12 01:31:47;;;;;;;15.93;9.90;;;;;;;14.32;100.00;99373.83;1704487;83;21078;-62
2022/09/12 01:34:27;;;;;;;13.65;9.45;;;;;;;14.35;100.00;99376.63;1715554;83;21031;-62
2022/09/12 01:37:23;;;;;;;10.00;8.90;;;;;;;14.34;100.00;99373.03;1722181;83;21003;-63
2022/09/12 01:40:13;;;;;;;10.85;8.63;;;;;;;14.35;100.00;99380.77;1697997;83;21537;-61
2022/09/12 01:43:00;;;;;;;11.50;7.70;;;;;;;14.35;100.00;99376.63;1698071;83;21026;-62
2022/09/12 01:45:49;;;;;;;9.98;8.28;;;;;;;14.34;100.00;99381.84;1704530;83;21003;-61
2022/09/12 01:48:31;;;;;;;8.68;7.40;;;;;;;14.25;100.00;99373.95;1693311;84;21138;-62
2022/09/12 01:51:25;;;;;;;7.58;6.20;;;;;;;14.22;100.00;99374.44;1679810;85;21419;-61
2022/09/12 01:54:10;;;;;;;8.98;5.40;;;;;;;14.19;100.00;99374.09;1679266;84;21074;-62
2022/09/12 01:56:40;;;;;;;6.80;5.50;;;;;;;14.14;100.00;99380.34;1710656;83;21031;-61
2022/09/12 01:59:27;;;;;;;7.42;5.58;;;;;;;14.13;100.00;99374.54;1697876;83;21078;-61
2022/09/12 02:02:05;;;;;;;7.87;5.30;;;;;;;14.12;100.00;99374.78;1702081;83;21101;-61
2022/09/12 02:04:40;;;;;;;5.87;4.97;;;;;;;14.12;100.00;99367.36;1709780;83;21050;-62
2022/09/12 02:07:24;;;;;;;5.70;4.70;;;;;;;14.12;100.00;99371.48;1721453;83;21070;-62
2022/09/12 02:10:07;;;;;;;6.15;4.50;;;;;;;14.14;100.00;99361.60;1698021;83;21082;-62
2022/09/12 02:12:43;;;;;;;6.00;4.85;;;;;;;14.12;100.00;99370.66;1697554;83;21070;-61
2022/09/12 02:15:13;;;;;;;6.17;4.20;;;;;;;14.11;100.00;99362.93;1697782;84;21043;-62
2022/09/12 02:17:44;;;;;;;6.05;4.55;;;;;;;14.11;100.00;99360.17;1697562;83;21066;-61
2022/09/12 02:20:27;;;;;;;5.17;4.00;;;;;;;14.11;100.00;99363.47;1677696;85;21067;-61
2022/09/12 02:22:58;;;;;;;5.67;3.42;;;;;;;14.11;100.00;99369.82;1674518;85;21079;-64
2022/09/12 02:25:28;;;;;;;4.28;3.37;;;;;;;14.10;99.63;99362.64;1704382;84;21071;-63
2022/09/12 02:28:03;;;;;;;5.00;3.87;;;;;;;14.07;99.39;99366.42;1708476;83;21102;-62
2022/09/12 02:30:38;;;;;;;4.08;3.33;;;;;;;14.07;99.24;99364.50;1700226;83;22094;-62
2022/09/12 02:33:18;;;;;;;4.97;3.67;;;;;;;14.06;99.13;99362.83;1697809;83;21503;-61
2022/09/12 02:35:55;;;;;;;4.40;3.20;;;;;;;14.06;99.07;99359.25;1721911;82;21026;-61
2022/09/12 02:38:44;;;;;;;4.75;3.35;;;;;;;14.07;98.92;99364.50;1727885;83;21046;-62
2022/09/12 02:41:17;;;;;;;3.40;2.83;;;;;;;14.08;98.69;99368.09;1727625;83;21066;-63
2022/09/12 02:43:47;;;;;;;4.45;2.87;;;;;;;14.03;98.49;99363.33;1726969;83;21110;-62
2022/09/12 02:46:33;;;;;;;5.10;3.27;;;;;;;14.02;98.56;99367.16;1725424;83;21548;-61
2022/09/12 02:49:03;;;;;;;3.92;3.15;;;;;;;14.02;98.55;99369.08;1706906;83;21024;-61
2022/09/12 02:51:32;;;;;;;4.00;2.75;;;;;;;13.99;98.40;99370.41;1697918;83;21055;-61
2022/09/12 02:54:02;;;;;;;3.33;2.98;;;;;;;14.00;98.46;99367.95;1697872;83;21059;-61
2022/09/12 02:56:32;;;;;;;4.08;3.10;;;;;;;13.99;98.32;99367.65;1708165;83;21047;-61
2022/09/12 02:59:07;;;;;;;3.10;2.80;;;;;;;14.00;98.34;99370.70;1708194;83;21451;-62
2022/09/12 03:02:03;;;;;;;3.17;2.67;;;;;;;13.98;98.28;99374.78;1723543;82;21077;-60
2022/09/12 03:04:48;;;;;;;3.52;2.70;;;;;;;13.96;98.24;99366.77;1723368;83;21051;-62
2022/09/12 03:07:39;;;;;;;3.15;2.70;;;;;;;13.98;98.21;99374.78;1705222;83;21031;-62
2022/09/12 03:10:53;;;;;;;3.00;2.55;;;;;;;13.94;98.09;99373.05;1700490;83;21040;-61
2022/09/12 03:13:40;;;;;;;3.85;2.42;;;;;;;13.90;97.96;99373.25;1709219;83;21022;-62
2022/09/12 03:16:20;;;;;;;3.02;2.27;;;;;;;13.87;97.94;99377.88;1714569;83;21011;-61
2022/09/12 03:19:07;;;;;;;3.30;2.12;;;;;;;13.81;97.97;99371.97;1699316;83;21046;-61
2022/09/12 03:21:53;;;;;;;;;;;;;;;13.80;98.07;99371.67;1705056;82;21038;-63
2022/09/12 03:24:33;;;;;;;3.80;2.50;;;;;;;13.77;98.04;99371.62;1705759;83;20201;-62
2022/09/12 03:27:22;;;;;;;2.83;2.52;;;;;;;13.72;98.04;99371.51;1710757;83;21003;-61
2022/09/12 03:29:52;;;;;;;3.08;2.42;;;;;;;13.72;98.01;99376.18;1725529;83;21003;-60
2022/09/12 03:32:42;;;;;;;3.17;2.60;;;;;;;13.68;98.06;99370.33;1728281;81;21459;-61
2022/09/12 03:35:12;;;;;;;3.10;2.72;;;;;;;13.69;98.18;99373.38;1721571;82;21042;-60
2022/09/12 03:37:42;;;;;;;3.60;2.12;;;;;;;13.71;98.16;99369.00;1710808;83;21467;-61
2022/09/12 03:40:12;;;;;;;3.22;2.27;;;;;;;13.73;98.17;99372.34;1716379;82;20998;-61
2022/09/12 03:42:43;;;;;;;5.12;2.25;;;;;;;13.73;98.08;99379.23;1703647;83;21435;-62
2022/09/12 03:45:12;;;;;;;2.67;2.05;;;;;;;13.74;98.13;99376.77;1698897;83;21067;-61
2022/09/12 03:47:42;;;;;;;2.85;2.22;;;;;;;13.72;98.13;99381.69;1721843;83;21038;-61
2022/09/12 03:50:12;;;;;;;6.42;2.45;;;;;;;13.72;98.17;99378.93;1716554;83;21438;-60
2022/09/12 03:52:41;;;;;;;3.25;2.15;;;;;;;13.73;98.09;99381.44;1717095;81;21552;-62
2022/09/12 03:55:11;;;;;;;3.30;1.75;;;;;;;13.75;97.99;99379.82;1711132;83;21063;-60
2022/09/12 03:57:40;;;;;;;5.22;2.98;;;;;;;13.76;97.84;99382.33;1721111;83;21466;-60
2022/09/12 04:00:09;;;;;;;3.15;2.40;;;;;;;13.75;97.67;99386.16;1713913;82;21499;-60
2022/09/12 04:02:41;;;;;;;2.55;2.00;;;;;;;13.70;97.51;99391.56;1720445;83;21035;-61
2022/09/12 04:05:10;;;;;;;2.00;0.90;;;;;;;13.70;97.59;99397.61;1715641;83;21098;-61
2022/09/12 04:07:39;;;;;;;1.77;0.60;;;;;;;13.60;96.91;99405.91;1728423;83;21094;-60
2022/09/12 04:10:09;;;;;;;2.55;0.60;;;;;;;13.49;95.66;99405.39;1715789;83;21497;-60
2022/09/12 04:12:39;;;;;;;1.00;0.60;;;;;;;13.36;94.51;99411.14;1718558;83;21505;-61
2022/09/12 04:15:09;;;;;;;1.90;0.80;;;;;;;13.21;93.63;99410.78;1723543;82;21074;-61
2022/09/12 04:17:39;;;;;;;8.50;0.70;;;;;;;13.10;93.25;99411.05;1719267;83;21078;-62
2022/09/12 04:20:08;;;;;;;1.60;0.50;;;;;;;12.99;93.09;99414.06;1726913;83;21062;-61
2022/09/12 04:22:38;;;;;;;0.88;0.60;;;;;;;12.96;93.20;99413.16;1728552;83;21046;-61
2022/09/12 04:25:08;;;;;;;1.22;0.50;;;;;;;12.88;92.58;99423.13;1728151;83;21085;-61
2022/09/12 04:27:39;;;;;;;1.60;0.55;;;;;;;12.85;92.44;99426.36;1722270;81;21035;-61
2022/09/12 04:30:09;;;;;;;1.22;0.40;;;;;;;12.82;92.26;99426.83;1723005;83;21094;-64
2022/09/12 04:32:39;;;;;;;1.37;0.37;;;;;;;12.80;92.05;99421.27;1698885;83;21085;-60
2022/09/12 04:35:11;;;;;;;2.12;0.40;;;;;;;12.78;91.59;99427.00;1698363;83;21105;-59
2022/09/12 04:37:40;;;;;;;1.12;0.47;;;;;;;12.73;91.14;99428.24;1722764;83;21054;-61
2022/09/12 04:40:10;;;;;;;2.37;0.90;;;;;;;12.66;90.82;99428.88;1728102;81;21023;-62
2022/09/12 04:42:40;;;;;;;1.87;0.37;;;;;;;12.61;90.74;99423.25;1711345;83;21011;-61
2022/09/12 04:45:10;;;;;;;1.62;0.47;;;;;;;12.59;90.77;99433.11;1710461;83;21518;-62
2022/09/12 04:47:41;;;;;;;0.57;0.40;;;;;;;12.59;90.62;99435.02;1706055;82;20984;-63
2022/09/12 04:50:11;;;;;;;0.93;0.45;;;;;;;12.58;90.55;99441.58;1705722;83;21023;-62
2022/09/12 04:52:45;;;;;;;0.60;0.45;;;;;;;12.59;90.73;99450.97;1688728;83;21079;-62
2022/09/12 04:55:16;;;;;;;2.98;0.60;;;;;;;12.62;90.72;99451.03;1682257;82;21059;-60
2022/09/12 04:57:46;;;;;;;1.57;0.60;;;;;;;12.63;90.77;99442.56;1693350;83;21063;-61
2022/09/12 05:00:16;;;;;;;1.20;0.55;;;;;;;12.67;90.97;99452.55;1699333;83;21443;-61
2022/09/12 05:02:47;;;;;;;1.45;0.75;;;;;;;12.64;91.06;99444.23;1704985;83;21078;-61
2022/09/12 05:05:17;;;;;;;1.35;0.80;;;;;;;12.62;91.09;99442.26;1706907;83;21078;-62
2022/09/12 05:07:48;;;;;;;0.93;0.47;;;;;;;12.64;91.29;99443.39;1688498;83;21082;-62
2022/09/12 05:10:18;;;;;;;2.20;0.80;;;;;;;12.65;91.32;99443.70;1711377;83;21031;-60
2022/09/12 05:12:48;;;;;;;4.25;0.88;;;;;;;12.67;91.34;99442.92;1717719;83;21114;-62
2022/09/12 05:15:18;;;;;;;1.80;0.75;;;;;;;12.67;91.30;99445.67;1716988;82;21123;-60
2022/09/12 05:17:48;;;;;;;2.20;0.70;;;;;;;12.62;91.22;99442.26;1705675;83;21063;-63
2022/09/12 05:20:18;;;;;;;1.98;0.90;;;;;;;12.62;91.53;99444.17;1705280;82;21082;-61
2022/09/12 05:22:47;;;;;;;2.77;1.55;;;;;;;12.63;91.52;99440.34;1702617;83;21023;-62
2022/09/12 05:25:17;;;;;;;2.90;1.00;;;;;;;12.63;91.64;99441.19;1708055;82;21035;-64
2022/09/12 05:27:46;;;;;;;2.75;0.90;;;;;;;12.66;92.08;99446.75;1704040;83;21035;-60
2022/09/12 05:30:17;;;;;;;1.27;0.95;;;;;;;12.67;92.15;99441.55;1688048;84;21467;-60
2022/09/12 05:32:46;;;;;;;1.40;0.85;;;;;;;12.68;92.01;99440.48;1713019;82;21031;-64
2022/09/12 05:35:16;;;;;;;1.87;0.60;;;;;;;12.71;91.88;99446.88;1707328;83;21035;-62
2022/09/12 05:37:47;;;;;;;3.02;1.00;;;;;;;12.74;91.67;99442.83;1708425;83;21508;-60
2022/09/12 05:40:18;;;;;;;0.65;0.50;;;;;;;12.72;91.51;99437.56;1713436;83;21042;-61
2022/09/12 05:42:46;;;;;;;1.12;0.70;;;;;;;12.69;91.11;99437.50;1702131;83;21030;-63
2022/09/12 05:45:16;;;;;;;3.42;1.15;;;;;;;12.68;90.97;99437.73;1720276;83;21439;-63
2022/09/12 05:47:47;;;;;;;1.50;1.10;;;;;;;12.65;90.52;99439.04;1705223;83;21210;-62
2022/09/12 05:50:17;;;;;;;4.03;1.20;;;;;;;12.64;90.24;99431.87;1724975;83;21031;-62
2022/09/12 05:52:46;;;;;;;2.92;1.05;;;;;;;12.68;90.41;99434.98;1704707;83;21499;-63
2022/09/12 05:55:16;;;;;;;2.33;1.30;;;;;;;12.73;90.39;99432.37;1695984;83;21435;-62
2022/09/12 05:57:45;;;;;;;4.00;1.05;;;;;;;12.75;90.43;99431.59;1702056;82;21110;-61
2022/09/12 06:00:16;;;;;;;1.82;1.00;;;;;;;12.78;90.44;99431.13;1716237;83;21098;-63
2022/09/12 06:02:53;;;;;;;3.50;1.40;;;;;;;12.84;90.57;99433.47;1725604;83;20999;-65
2022/09/12 06:05:25;;;;;;;2.30;1.30;;;;;;;12.90;90.47;99429.23;1700488;83;21003;-62
2022/09/12 06:07:55;;;;;;;1.32;1.02;;;;;;;12.96;90.36;99430.20;1706881;82;21047;-62
2022/09/12 06:10:25;;;;;;;1.40;1.10;;;;;;;13.00;90.22;99432.27;1724759;83;20995;-61
2022/09/12 06:12:54;;;;;;;2.17;1.07;;;;;;;13.04;89.96;99434.54;1714451;83;21026;-63
2022/09/12 06:15:24;;;;;;;2.62;0.80;;;;;;;13.05;89.83;99432.09;1701717;83;21114;-62
2022/09/12 06:17:53;;;;;;;1.85;0.88;;;;;;;13.06;89.59;99430.48;1707544;83;21127;-62
2022/09/12 06:20:24;;;;;;;2.90;1.15;;;;;;;13.06;88.78;99431.86;1706006;83;21027;-61
2022/09/12 06:22:54;;;;;;;2.92;0.90;;;;;;;13.04;88.12;99431.25;1713039;82;21023;-63
2022/09/12 06:25:23;;;;;;;1.12;0.70;;;;;;;13.05;87.97;99427.97;1703753;83;21074;-62
2022/09/12 06:27:54;;;;;;;0.70;0.70;;;;;;;13.07;87.67;99433.53;1707697;83;21126;-64
2022/09/12 06:30:23;;;;;;;2.08;1.00;;;;;;;13.11;87.68;99438.86;1727071;83;21070;-63
2022/09/12 06:32:55;;;;;;;2.15;0.85;;;;;;;13.14;87.58;99436.16;1728136;83;21086;-62
2022/09/12 06:35:25;;;;;;;0.82;0.60;;;;;;;13.16;87.53;99439.52;1717754;83;21118;-63
2022/09/12 06:37:55;;;;;;;2.80;0.80;;;;;;;13.16;86.97;99438.14;1704463;83;21027;-63
2022/09/12 06:40:26;;;;;;;1.47;0.90;;;;;;;13.14;86.40;99438.91;1694388;83;21081;-63
2022/09/12 06:42:56;;;;;;;6.62;1.98;;;;;;;13.09;85.94;99441.00;1693383;83;21059;-62
2022/09/12 06:45:31;;;;;;;3.37;1.07;;;;;;;13.05;85.94;99447.22;1705033;83;21460;-63
2022/09/12 06:48:01;;;;;;;3.40;1.10;;;;;;;13.00;86.10;99446.52;1717593;83;21475;-63
2022/09/12 06:50:31;;;;;;;2.72;0.90;;;;;;;13.00;86.28;99452.89;1705865;82;21066;-62
2022/09/12 06:53:02;;;;;;;4.42;1.32;;;;;;;12.98;86.18;99445.38;1705541;83;20999;-62
2022/09/12 06:55:32;;;;;;;4.65;1.00;;;;;;;12.99;86.44;99449.81;1692755;83;21066;-61
2022/09/12 06:58:04;;;;;;;3.00;1.87;;;;;;;13.01;86.14;99454.56;1707512;82;21068;-62
2022/09/12 07:00:34;;;;;;;3.85;1.30;;;;;;;12.96;85.86;99452.20;1713250;83;21059;-62
2022/09/12 07:03:04;;;;;;;5.15;1.90;;;;;;;12.96;85.97;99454.95;1697158;83;21031;-62
2022/09/12 07:05:34;;;;;;;5.40;1.87;;;;;;;12.97;86.02;99460.20;1708848;83;21008;-62
2022/09/12 07:08:03;;;;;;;4.22;1.45;;;;;;;12.99;86.27;99462.18;1673325;85;21079;-61
2022/09/12 07:10:33;;;;;;;4.10;1.25;;;;;;;13.04;86.39;99462.88;1713896;83;21039;-62
2022/09/12 07:13:03;;;;;;;5.60;1.32;;;;;;;13.06;86.39;99459.89;1707500;83;21062;-61
2022/09/12 07:15:36;;;;;;;2.47;1.05;;;;;;;13.08;86.13;99464.08;1700048;83;21043;-67
2022/09/12 07:18:06;;;;;;;3.77;1.50;;;;;;;13.10;85.79;99458.34;1705568;83;21078;-62
2022/09/12 07:20:38;;;;;;;6.40;1.37;;;;;;;13.12;85.67;99452.06;1717328;83;21471;-62
2022/09/12 07:23:07;;;;;;;3.02;1.25;;;;;;;13.21;85.52;99462.52;1700949;83;21094;-62
2022/09/12 07:25:38;;;;;;;2.50;1.47;;;;;;;13.29;85.50;99458.57;1710432;83;21497;-62
2022/09/12 07:28:08;;;;;;;3.17;1.12;;;;;;;13.42;85.02;99461.08;1713896;82;21526;-63
2022/09/12 07:30:38;;;;;;;4.55;1.20;;;;;;;13.53;84.73;99456.12;1682122;83;21335;-63
2022/09/12 07:33:07;;;;;;;3.87;1.40;;;;;;;13.59;83.18;99456.53;1693206;84;21452;-63
2022/09/12 07:35:37;;;;;;;3.50;1.30;;;;;;;13.67;82.94;99454.52;1707691;84;21028;-64
2022/09/12 07:38:07;;;;;;;3.85;1.40;;;;;;;13.78;82.72;99457.80;1706613;82;21035;-61
2022/09/12 07:40:39;;;;;;;4.47;1.37;;;;;;;13.91;82.28;99454.24;1707466;83;21416;-62
2022/09/12 07:43:09;;;;;;;2.75;1.30;;;;;;;14.03;81.84;99451.46;1717502;83;21094;-62
2022/09/12 07:45:40;;;;;;;3.98;1.20;;;;;;;14.11;80.17;99452.45;1705173;83;21062;-62
2022/09/12 07:48:10;;;;;;;1.92;1.02;;;;;;;14.19;79.87;99448.48;1714882;82;21062;-63
2022/09/12 07:50:40;;;;;;;3.60;0.93;;;;;;;14.28;79.00;99451.98;1697970;83;21078;-62
2022/09/12 07:53:12;;;;;;;2.10;0.98;;;;;;;14.36;78.59;99454.08;1723248;83;21078;-64
2022/09/12 07:55:43;;;;;;;2.65;0.90;;;;;;;14.48;78.54;99454.91;1715665;82;21466;-62
2022/09/12 07:58:12;;;;;;;1.67;1.00;;;;;;;14.58;77.97;99458.69;1728189;83;21099;-63
2022/09/12 08:00:44;;;;;;;1.77;0.80;;;;;;;14.62;76.84;99454.89;1710861;83;21055;-62
2022/09/12 08:03:13;;;;;;;1.32;1.02;;;;;;;14.61;75.59;99449.09;1710693;83;21109;-63
2022/09/12 08:05:42;;;;;;;1.90;1.10;;;;;;;14.61;75.55;99449.63;1710730;83;21090;-63
2022/09/12 08:08:14;;;;;;;3.40;1.20;;;;;;;14.62;75.09;99445.25;1708052;83;21031;-60
2022/09/12 08:10:44;;;;;;;6.60;1.45;;;;;;;14.67;74.88;99449.48;1727176;83;21542;-63
2022/09/12 08:13:15;;;;;;;1.37;0.80;;;;;;;14.72;74.59;99450.11;1715328;83;21054;-62
2022/09/12 08:15:45;;;;;;;1.40;0.95;;;;;;;14.79;74.63;99443.90;1724816;83;21473;-63
2022/09/12 08:18:15;;;;;;;1.27;0.98;;;;;;;14.89;74.59;99455.11;1710570;83;21107;-62
2022/09/12 08:20:44;;;;;;;1.37;1.02;;;;;;;15.03;73.93;99447.38;1724116;83;21062;-61
2022/09/12 08:23:13;;;;;;;5.40;3.20;;;;;;;15.20;73.12;99448.22;1708302;81;21572;-63
2022/09/12 08:25:44;;;;;;;1.47;1.10;;;;;;;15.33;72.35;99445.11;1710646;83;21007;-64
2022/09/12 08:28:14;;;;;;;2.75;1.00;;;;;;;15.49;72.02;99449.78;1710575;81;21505;-63
2022/09/12 08:30:43;;;;;;;2.42;1.30;;;;;;;15.65;70.86;99442.63;1709527;83;21103;-62
2022/09/12 08:33:14;;;;;;;2.33;1.80;;;;;;;15.75;70.08;99437.23;1725261;82;21070;-63
2022/09/12 08:35:43;;;;;;;3.77;1.37;;;;;;;15.80;69.17;99444.76;1724838;83;21069;-64
2022/09/12 08:38:13;;;;;;;4.25;1.87;;;;;;;15.84;69.07;99445.92;1700341;82;21090;-62
2022/09/12 08:40:50;;;;;;;8.73;6.20;;;;;;;15.84;68.24;99432.11;1716115;83;21459;-62
2022/09/12 08:43:36;;;;;;;13.65;10.58;;;;;;;15.80;68.15;99430.95;1712418;83;21058;-68
2022/09/12 08:46:15;;;;;;;6.12;3.30;;;;;;;15.74;68.23;99430.59;1721712;82;21082;-62
2022/09/12 08:48:45;;;;;;;4.75;1.50;;;;;;;15.73;68.20;99432.52;1709872;83;21047;-63
2022/09/12 08:51:17;;;;;;;2.20;2.00;;;;;;;15.71;67.98;99426.95;1713106;83;21078;-63
2022/09/12 08:53:48;;;;;;;2.08;1.22;;;;;;;15.68;67.60;99435.75;1724810;83;21086;-62
2022/09/12 08:56:18;;;;;;;2.02;1.30;;;;;;;15.60;67.70;99430.63;1700659;83;21098;-64
2022/09/12 08:58:48;;;;;;;3.30;1.47;;;;;;;15.57;68.32;99432.48;1719106;82;21043;-62
2022/09/12 09:01:37;;;;;;;1.20;1.00;;;;;;;15.58;68.04;99440.55;1719711;83;21388;-63
2022/09/12 09:04:38;;;;;;;3.30;1.50;;;;;;;15.58;68.08;99431.44;1691565;83;21177;-65
2022/09/12 09:07:39;;;;;;;2.87;1.45;;;;;;;15.61;68.43;99433.17;1719345;82;21023;-64
2022/09/12 09:10:48;;;;;;;9.83;2.15;;;;;;;15.64;67.90;99429.90;1725510;82;21086;-64
2022/09/12 09:16:34;;;;;;;2.47;1.50;;;;;;;15.68;67.68;99426.09;1708272;82;21058;-62
2022/09/12 09:19:15;;;;;;;1.85;1.20;;;;;;;15.70;67.71;99434.95;1725703;83;21070;-62
2022/09/12 09:21:49;;;;;;;1.95;1.20;;;;;;;15.73;67.70;99431.68;1724522;82;21031;-63
2022/09/12 09:24:20;;;;;;;1.10;1.00;;;;;;;15.75;67.03;99437.78;1718049;83;21050;-62
2022/09/12 09:27:04;;;;;;;5.95;1.80;;;;;;;15.73;66.65;99437.20;1721301;82;21066;-63
2022/09/12 09:29:44;;;;;;;1.98;1.40;;;;;;;15.73;66.62;99433.89;1715123;82;21054;-64
2022/09/12 09:32:20;;;;;;;1.87;1.40;;;;;;;15.72;66.37;99436.91;1714077;82;21122;-64
2022/09/12 09:34:51;;;;;;;2.70;1.57;;;;;;;15.71;66.51;99439.38;1715452;83;21046;-63
2022/09/12 09:37:33;;;;;;;3.27;1.47;;;;;;;15.68;66.54;99437.13;1719933;83;21066;-64
2022/09/12 09:40:24;;;;;;;3.75;1.95;;;;;;;15.64;66.49;99438.73;1714218;82;21043;-63
2022/09/12 09:43:23;;;;;;;3.98;2.15;;;;;;;15.60;66.65;99441.67;1708952;83;21090;-66
2022/09/12 09:45:52;;;;;;;4.92;1.50;;;;;;;15.57;66.68;99447.67;1716809;82;21078;-63
2022/09/12 09:48:31;;;;;;;2.85;1.70;;;;;;;15.54;67.00;99438.81;1727351;83;21509;-63
2022/09/12 09:51:01;;;;;;;1.60;1.32;;;;;;;15.52;66.95;99440.16;1727917;81;21484;-63
2022/09/12 09:53:53;;;;;;;3.72;1.60;;;;;;;15.46;66.73;99443.38;1727583;81;21087;-63
2022/09/12 09:56:33;;;;;;;2.92;1.50;;;;;;;15.42;66.92;99448.28;1699864;83;21035;-63
2022/09/12 09:59:28;;;;;;;5.95;4.30;;;;;;;15.41;67.65;99450.75;1715410;83;21058;-63
2022/09/12 10:02:20;;;;;;;3.17;1.70;;;;;;;15.39;67.03;99449.63;1718942;83;21046;-63
2022/09/12 10:04:55;;;;;;;2.62;1.50;;;;;;;15.36;66.83;99450.67;1711044;83;21094;-62
2022/09/12 10:07:24;;;;;;;2.27;1.57;;;;;;;15.32;66.33;99448.12;1703171;82;21068;-63
2022/09/12 10:10:16;;;;;;;3.10;1.47;;;;;;;15.26;66.57;99447.20;1700765;83;21483;-63
2022/09/12 10:12:46;;;;;;;2.58;1.57;;;;;;;15.22;67.03;99457.08;1716103;83;21034;-63
2022/09/12 10:15:28;;;;;;;3.58;1.57;;;;;;;15.20;67.22;99458.70;1684225;85;21317;-63
2022/09/12 10:17:58;;;;;;;2.83;1.50;;;;;;;15.17;66.95;99461.13;1688169;83;21134;-64
2022/09/12 10:20:39;;;;;;;5.15;1.87;;;;;;;15.14;66.78;99460.25;1717144;83;21687;-62
2022/09/12 10:23:36;;;;;;;1.60;1.12;;;;;;;15.08;66.57;99462.64;1700765;83;21037;-64
2022/09/12 10:26:12;;;;;;;2.40;1.80;;;;;;;15.04;66.73;99459.54;1705212;83;21087;-62
2022/09/12 10:28:53;;;;;;;2.50;1.42;;;;;;;15.05;67.29;99465.89;1705801;83;21118;-63
2022/09/12 10:31:29;;;;;;;5.92;2.00;;;;;;;15.08;67.63;99465.39;1718149;82;21075;-64
2022/09/12 10:33:59;;;;;;;2.45;1.40;;;;;;;15.08;67.83;99468.98;1682674;83;21052;-65
2022/09/12 10:36:36;;;;;;;3.75;1.80;;;;;;;15.05;68.05;99470.87;1715011;83;21034;-64
2022/09/12 10:39:06;;;;;;;3.12;1.60;;;;;;;14.97;68.50;99468.52;1714901;83;21035;-62
2022/09/12 10:41:39;;;;;;;3.27;1.40;;;;;;;14.88;69.03;99477.72;1721025;83;21071;-62
2022/09/12 10:44:19;;;;;;;2.92;1.50;;;;;;;14.78;69.24;99473.94;1722415;83;21086;-63
2022/09/12 10:46:49;;;;;;;3.67;1.57;;;;;;;14.70;69.80;99471.58;1707027;83;21051;-62
2022/09/12 10:49:30;;;;;;;3.10;1.60;;;;;;;14.65;70.26;99473.70;1726929;83;21113;-63
2022/09/12 10:52:22;;;;;;;5.15;1.67;;;;;;;14.60;70.42;99480.50;1720236;81;21087;-63
2022/09/12 10:54:51;;;;;;;10.48;2.40;;;;;;;14.56;70.71;99482.91;1718567;81;21528;-63
2022/09/12 10:57:44;;;;;;;6.47;2.75;;;;;;;14.50;71.29;99482.52;1701656;83;21055;-63
2022/09/12 11:00:16;;;;;;;4.58;1.57;;;;;;;14.47;71.54;99476.66;1721982;83;21023;-62
2022/09/12 11:03:15;;;;;;;4.05;1.57;;;;;;;14.42;71.48;99485.66;1716219;83;21023;-64
2022/09/12 11:05:58;;;;;;;3.37;2.00;;;;;;;14.40;71.54;99486.42;1684504;84;21097;-63
2022/09/12 11:08:59;;;;;;;3.70;1.80;;;;;;;14.40;71.59;99484.20;1701709;83;21090;-64
2022/09/12 11:11:48;;;;;;;3.52;1.98;;;;;;;14.39;71.61;99486.12;1722675;83;21063;-62
2022/09/12 11:14:49;;;;;;;5.25;1.80;;;;;;;14.37;71.49;99490.20;1710229;83;21070;-64
2022/09/12 11:17:29;;;;;;;2.90;1.40;;;;;;;14.33;71.79;99490.39;1716247;82;21050;-63
2022/09/12 11:20:29;;;;;;;3.75;1.55;;;;;;;14.32;72.29;99490.09;1697793;83;21123;-65
2022/09/12 11:23:31;;;;;;;3.33;1.35;;;;;;;14.32;72.22;99491.48;1710049;83;21507;-62
2022/09/12 11:26:28;;;;;;;5.40;2.10;;;;;;;14.35;72.08;99499.25;1715602;83;21058;-62
2022/09/12 11:29:30;;;;;;;8.13;1.82;;;;;;;14.33;72.13;99498.13;1727676;81;21026;-61
2022/09/12 11:32:44;;;;;;;6.58;1.90;;;;;;;14.32;72.49;99500.58;1701301;83;21079;-63
2022/09/12 11:35:33;;;;;;;7.12;2.17;;;;;;;14.27;72.36;99500.44;1690414;84;21115;-64
2022/09/12 11:38:16;;;;;;;4.08;1.80;;;;;;;14.26;72.72;99494.64;1678352;84;21469;-64
2022/09/12 11:40:55;;;;;;;5.62;1.60;;;;;;;14.26;72.94;99487.75;1691782;84;21091;-62
2022/09/12 11:43:37;;;;;;;6.35;2.10;;;;;;;14.28;73.10;99490.55;1695699;84;21040;-63
2022/09/12 11:46:29;;;;;;;4.40;2.12;;;;;;;14.29;72.87;99489.47;1702603;84;21040;-61
2022/09/12 11:49:25;;;;;;;9.73;2.67;;;;;;;14.28;72.91;99493.31;1679705;84;21036;-63
2022/09/12 11:52:20;;;;;;;10.80;2.80;;;;;;;14.24;72.92;99496.26;1689823;84;21098;-62
2022/09/12 11:55:09;;;;;;;7.10;2.47;;;;;;;14.21;72.92;99495.91;1695775;84;21298;-65
2022/09/12 11:57:42;;;;;;;5.92;2.50;;;;;;;14.16;72.71;99499.94;1694973;83;21878;-62
2022/09/12 12:00:21;;;;;;;6.35;2.47;;;;;;;14.15;72.91;99501.02;1702333;84;21044;-64
2022/09/12 12:03:08;;;;;;;8.60;3.90;;;;;;;14.14;73.05;99505.69;1684499;84;21109;-63
2022/09/12 12:06:21;;;;;;;7.58;4.60;;;;;;;14.17;72.96;99507.95;1698579;83;21489;-63
2022/09/12 12:08:50;;;;;;;5.72;3.50;;;;;;;14.16;72.76;99504.06;1691094;84;21100;-62
2022/09/12 12:11:31;;;;;;;7.10;3.05;;;;;;;14.15;72.92;99503.23;1699972;84;21065;-63
2022/09/12 12:14:14;;;;;;;7.42;2.83;;;;;;;14.15;72.74;99500.48;1680400;83;21068;-67